createdAt,value
2022-09-28T00:01:21.418Z,81
2022-09-28T00:02:30.496Z,81
2022-09-28T00:07:43.792Z,81
2022-09-28T00:12:27.256Z,81
2022-09-28T00:17:25.412Z,81
2022-09-28T00:22:08.765Z,82
2022-09-28T00:27:36.809Z,82
2022-09-28T00:32:19.786Z,83
2022-09-28T00:37:02.761Z,82
2022-09-28T00:41:45.714Z,83
2022-09-28T00:47:19.115Z,83
2022-09-28T00:52:42.220Z,82
2022-09-28T00:57:55.409Z,83
2022-09-28T01:03:08.393Z,85
2022-09-28T01:07:51.300Z,84
2022-09-28T01:13:04.376Z,85
2022-09-28T01:18:17.393Z,85
2022-09-28T01:24:02.839Z,85
2022-09-28T01:28:54.048Z,84
2022-09-28T01:30:08.379Z,85
2022-09-28T01:34:46.549Z,85
2022-09-28T01:40:04.479Z,84
2022-09-28T01:45:17.555Z,83
2022-09-28T01:50:33.476Z,82
2022-09-28T01:55:16.279Z,83
2022-09-28T02:00:37.404Z,84
2022-09-28T02:05:50.244Z,84
2022-09-28T02:10:24.842Z,84
2022-09-28T02:15:07.543Z,85
2022-09-28T02:19:50.716Z,83
2022-09-28T02:25:03.714Z,84
2022-09-28T02:26:18.087Z,84
2022-09-28T02:30:45.963Z,83
2022-09-28T02:34:09.804Z,86
2022-09-28T02:42:02.482Z,85
2022-09-28T02:46:55.455Z,84
2022-09-28T02:51:48.621Z,85
2022-09-28T02:56:28.584Z,85
2022-09-28T02:57:42.862Z,85
2022-09-28T03:01:07.014Z,85
2022-09-28T03:02:19.102Z,84
2022-09-28T03:07:36.975Z,84
2022-09-28T03:12:49.958Z,86
2022-09-28T03:17:19.832Z,86
2022-09-28T03:22:02.787Z,86
2022-09-28T03:26:45.715Z,87
2022-09-28T03:31:28.809Z,86
2022-09-28T03:36:27.119Z,86
2022-09-28T03:40:57.341Z,86
2022-09-28T03:46:25.348Z,84
2022-09-28T03:51:58.407Z,85
2022-09-28T04:00:38.204Z,86
2022-09-28T04:01:42.411Z,87
2022-09-28T04:13:00.447Z,86
2022-09-28T04:14:12.323Z,86
2022-09-28T04:19:25.483Z,86
2022-09-28T04:24:08.460Z,86
2022-09-28T04:28:51.393Z,86
2022-09-28T04:33:39.811Z,84
2022-09-28T04:39:11.436Z,85
2022-09-28T05:31:15.889Z,86
2022-09-28T05:32:24.923Z,86
2022-09-28T05:37:08.019Z,85
2022-09-28T05:41:51.286Z,85
2022-09-28T05:46:34.372Z,86
2022-09-28T05:51:17.384Z,86
2022-09-28T05:56:30.506Z,86
2022-09-28T06:01:13.492Z,85
2022-09-28T06:06:26.512Z,85
2022-09-28T06:11:09.535Z,85
2022-09-28T06:15:52.519Z,84
2022-09-28T06:21:25.632Z,84
2022-09-28T06:24:59.663Z,84
2022-09-28T06:29:42.720Z,83
2022-09-28T06:32:41.131Z,84
2022-09-28T06:33:45.560Z,84
2022-09-28T06:35:05.256Z,83
2022-09-28T06:36:09.844Z,83
2022-09-28T06:39:53.755Z,82
2022-09-28T06:42:47.682Z,83
2022-09-28T06:43:57.583Z,83
2022-09-28T06:45:02.628Z,82
2022-09-28T06:46:07.139Z,83
2022-09-28T06:47:11.348Z,82
2022-09-28T06:51:54.460Z,83
2022-09-28T06:52:58.796Z,81
2022-09-28T06:55:52.865Z,82
2022-09-28T06:56:57.738Z,81
2022-09-28T06:58:02.104Z,81
2022-09-28T06:59:06.180Z,81
2022-09-28T07:03:36.423Z,81
2022-09-28T07:08:19.288Z,80
2022-09-28T07:13:02.715Z,79
2022-09-28T07:17:57.531Z,79
2022-09-28T07:22:43.212Z,79
2022-09-28T07:28:09.391Z,80
2022-09-28T07:36:21.051Z,78
2022-09-28T07:41:04.425Z,77
2022-09-28T07:42:13.755Z,76
2022-09-28T07:49:00.847Z,75
2022-09-28T07:54:16.825Z,73
2022-09-28T07:59:29.943Z,72
2022-09-28T08:04:12.965Z,71
2022-09-28T08:09:06.163Z,72
2022-09-28T08:13:35.956Z,69
2022-09-28T08:14:44.411Z,70
2022-09-28T08:15:48.811Z,69
2022-09-28T08:18:44.027Z,67
2022-09-28T08:19:52.286Z,67
2022-09-28T08:21:01.479Z,67
2022-09-28T08:22:11.315Z,67
2022-09-28T08:23:15.929Z,68
2022-09-28T08:24:20.495Z,69
2022-09-28T08:25:25.144Z,69
2022-09-28T08:26:29.430Z,69
2022-09-28T08:27:35.071Z,67
2022-09-28T08:28:39.452Z,67
2022-09-28T08:29:43.944Z,66
2022-09-28T08:30:49.272Z,67
2022-09-28T08:31:53.858Z,66
2022-09-28T08:33:02.932Z,66
2022-09-28T08:34:07.188Z,67
2022-09-28T08:35:11.923Z,67
2022-09-28T08:36:16.243Z,68
2022-09-28T08:37:20.440Z,67
2022-09-28T08:38:26.961Z,67
2022-09-28T08:39:31.475Z,67
2022-09-28T08:40:37.590Z,68
2022-09-28T08:41:44.795Z,68
2022-09-28T08:42:58.111Z,68
2022-09-28T08:44:02.369Z,68
2022-09-28T08:45:14.397Z,69
2022-09-28T08:46:29.152Z,68
2022-09-28T08:47:37.149Z,69
2022-09-28T08:49:06.851Z,68
2022-09-28T08:49:59.545Z,70
2022-09-28T08:51:08.822Z,68
2022-09-28T08:52:20.304Z,68
2022-09-28T08:53:24.534Z,68
2022-09-28T08:54:37.083Z,67
2022-09-28T08:55:41.374Z,67
2022-09-28T08:56:45.791Z,67
2022-09-28T08:57:56.078Z,68
2022-09-28T08:59:06.080Z,67
2022-09-28T09:00:11.733Z,67
2022-09-28T09:01:19.883Z,67
2022-09-28T09:02:25.078Z,66
2022-09-28T09:03:32.159Z,67
2022-09-28T09:04:36.939Z,67
2022-09-28T09:05:41.270Z,67
2022-09-28T09:07:57.059Z,66
2022-09-28T09:09:04.094Z,67
2022-09-28T09:10:10.974Z,65
2022-09-28T09:11:23.001Z,66
2022-09-28T09:12:35.335Z,66
2022-09-28T09:13:53.151Z,65
2022-09-28T09:15:05.248Z,65
2022-09-28T09:16:14.560Z,66
2022-09-28T09:17:29.350Z,66
2022-09-28T09:18:38.799Z,65
2022-09-28T09:19:48.626Z,65
2022-09-28T09:21:57.438Z,65
2022-09-28T09:24:13.560Z,66
2022-09-28T09:25:25.695Z,66
2022-09-28T09:26:37.603Z,67
2022-09-28T09:27:42.118Z,67
2022-09-28T09:28:54.434Z,66
2022-09-28T09:30:01.607Z,66
2022-09-28T09:31:14.596Z,66
2022-09-28T09:32:30.042Z,65
2022-09-28T09:33:44.858Z,66
2022-09-28T09:34:54.562Z,66
2022-09-28T09:36:01.611Z,66
2022-09-28T09:37:16.282Z,66
2022-09-28T09:38:30.842Z,65
2022-09-28T09:39:43.087Z,66
2022-09-28T09:40:57.972Z,65
2022-09-28T09:43:59.916Z,65
2022-09-28T09:45:14.395Z,65
2022-09-28T09:46:23.858Z,65
2022-09-28T09:47:40.938Z,64
2022-09-28T09:48:45.099Z,64
2022-09-28T09:49:53.495Z,64
2022-09-28T09:51:00.718Z,63
2022-09-28T09:52:05.251Z,63
2022-09-28T09:55:10.342Z,64
2022-09-28T09:56:17.254Z,63
2022-09-28T10:01:03.340Z,60
2022-09-28T10:05:49.202Z,59
2022-09-28T10:06:58.394Z,58
2022-09-28T10:21:35.306Z,56
2022-09-28T10:22:43.655Z,56
2022-09-28T10:27:26.922Z,57
2022-09-28T10:28:31.227Z,56
2022-09-28T10:29:40.762Z,55
2022-09-28T10:30:50.443Z,55
2022-09-28T10:31:57.434Z,55
2022-09-28T10:33:01.878Z,56
2022-09-28T10:34:06.760Z,56
2022-09-28T10:35:13.516Z,56
2022-09-28T10:36:23.483Z,55
2022-09-28T10:37:31.686Z,56
2022-09-28T10:38:36.347Z,55
2022-09-28T10:39:40.784Z,56
2022-09-28T10:40:50.945Z,56
2022-09-28T10:41:55.331Z,56
2022-09-28T10:42:59.708Z,56
2022-09-28T10:44:05.780Z,56
2022-09-28T10:45:10.228Z,56
2022-09-28T10:46:20.803Z,57
2022-09-28T10:47:24.884Z,57
2022-09-28T10:48:29.185Z,57
2022-09-28T10:49:46.956Z,57
2022-09-28T10:50:48.672Z,58
2022-09-28T10:51:58.191Z,57
2022-09-28T10:53:02.556Z,58
2022-09-28T10:54:12.256Z,58
2022-09-28T10:55:19.575Z,57
2022-09-28T10:56:29.674Z,57
2022-09-28T10:57:37.381Z,57
2022-09-28T10:59:48.105Z,58
2022-09-28T11:00:52.603Z,58
2022-09-28T11:02:04.796Z,58
2022-09-28T11:03:14.067Z,58
2022-09-28T11:04:26.692Z,58
2022-09-28T11:05:30.764Z,58
2022-09-28T11:06:35.026Z,58
2022-09-28T11:07:39.411Z,58
2022-09-28T11:08:46.622Z,59
2022-09-28T11:09:51.124Z,58
2022-09-28T11:10:56.832Z,58
2022-09-28T11:12:10.053Z,56
2022-09-28T11:13:19.369Z,57
2022-09-28T11:14:23.768Z,57
2022-09-28T11:15:36.064Z,57
2022-09-28T11:18:31.607Z,58
2022-09-28T11:19:35.801Z,57
2022-09-28T11:20:42.828Z,57
2022-09-28T11:21:46.288Z,58
2022-09-28T11:22:55.299Z,57
2022-09-28T11:23:59.549Z,57
2022-09-28T11:25:08.830Z,57
2022-09-28T11:26:18.877Z,57
2022-09-28T11:27:22.371Z,56
2022-09-28T11:28:26.527Z,57
2022-09-28T11:29:30.859Z,57
2022-09-28T11:30:38.178Z,56
2022-09-28T11:33:35.111Z,56
2022-09-28T11:34:57.802Z,56
2022-09-28T11:35:44.719Z,56
2022-09-28T11:37:01.655Z,56
2022-09-28T11:39:58.003Z,55
2022-09-28T11:41:07.263Z,56
2022-09-28T11:42:16.767Z,57
2022-09-28T11:43:20.928Z,57
2022-09-28T11:44:29.445Z,56
2022-09-28T11:45:37.241Z,56
2022-09-28T11:46:41.462Z,55
2022-09-28T11:47:55.818Z,56
2022-09-28T11:50:49.990Z,56
2022-09-28T11:53:46.751Z,58
2022-09-28T11:54:56.022Z,57
2022-09-28T11:56:00.056Z,58
2022-09-28T11:57:07.257Z,57
2022-09-28T12:01:50.565Z,57
2022-09-28T12:06:36.382Z,56
2022-09-28T12:11:54.299Z,57
2022-09-28T12:17:08.155Z,57
2022-09-28T12:18:21.314Z,57
2022-09-28T12:23:09.165Z,58
2022-09-28T12:28:45.676Z,58
2022-09-28T12:32:19.097Z,57
2022-09-28T12:37:06.989Z,58
2022-09-28T12:42:45.561Z,57
2022-09-28T12:47:38.613Z,57
2022-09-28T12:52:24.302Z,58
2022-09-28T12:57:59.838Z,59
2022-09-28T13:03:40.539Z,59
2022-09-28T13:08:33.437Z,60
2022-09-28T13:14:03.788Z,59
2022-09-28T13:19:37.713Z,58
2022-09-28T13:24:33.263Z,60
2022-09-28T13:29:03.105Z,60
2022-09-28T13:34:41.286Z,60
2022-09-28T13:39:17.050Z,60
2022-09-28T13:44:40.101Z,61
2022-09-28T13:49:58.008Z,61
2022-09-28T13:55:18.809Z,62
2022-09-28T14:00:39.311Z,63
2022-09-28T14:01:48.523Z,62
2022-09-28T14:11:08.220Z,63
2022-09-28T14:12:22.513Z,63
2022-09-28T14:27:13.155Z,65
2022-09-28T14:28:27.333Z,66
2022-09-28T14:29:41.564Z,66
2022-09-28T14:33:05.217Z,66
2022-09-28T14:34:22.668Z,66
2022-09-28T14:39:50.646Z,66
2022-09-28T14:45:28.247Z,67
2022-09-28T14:50:14.754Z,69
2022-09-28T14:55:45.439Z,74
2022-09-28T15:01:21.449Z,77
2022-09-28T15:09:34.294Z,80
2022-09-28T15:14:17.133Z,81
2022-09-28T15:24:26.909Z,83
2022-09-28T15:29:10.094Z,83
2022-09-28T15:34:42.725Z,84
2022-09-28T15:35:51.929Z,84
2022-09-28T15:39:16.705Z,84
2022-09-28T15:40:25.937Z,84
2022-09-28T15:45:11.319Z,84
2022-09-28T15:50:44.280Z,84
2022-09-28T15:56:00.068Z,86
2022-09-28T16:00:29.558Z,85
2022-09-28T16:05:12.456Z,86
2022-09-28T16:06:26.630Z,86
2022-09-28T16:10:56.797Z,85
2022-09-28T16:15:47.640Z,85
2022-09-28T16:18:47.160Z,86
2022-09-28T16:23:14.543Z,85
2022-09-28T16:24:23.959Z,85
2022-09-28T16:25:28.244Z,86
2022-09-28T16:26:32.968Z,86
2022-09-28T16:27:38.104Z,86
2022-09-28T16:28:44.263Z,85
2022-09-28T16:31:03.110Z,85
2022-09-28T16:32:07.908Z,86
2022-09-28T16:33:17.516Z,86
2022-09-28T16:34:26.921Z,86
2022-09-28T16:35:31.632Z,87
2022-09-28T16:36:35.888Z,86
2022-09-28T16:37:40.340Z,86
2022-09-28T16:38:45.725Z,86
2022-09-28T16:39:50.833Z,86
2022-09-28T16:40:55.247Z,85
2022-09-28T16:41:59.530Z,86
2022-09-28T16:43:03.853Z,85
2022-09-28T16:44:08.380Z,85
2022-09-28T16:45:20.776Z,85
2022-09-28T16:46:25.714Z,85
2022-09-28T16:47:33.652Z,85
2022-09-28T16:48:38.651Z,84
2022-09-28T16:49:43.643Z,84
2022-09-28T16:50:47.920Z,84
2022-09-28T16:51:52.387Z,84
2022-09-28T16:53:01.282Z,84
2022-09-28T16:54:13.735Z,83
2022-09-28T16:55:39.307Z,84
2022-09-28T16:56:28.343Z,83
2022-09-28T16:57:32.756Z,83
2022-09-28T16:58:37.241Z,83
2022-09-28T16:59:41.585Z,83
2022-09-28T17:00:45.838Z,83
2022-09-28T17:01:51.167Z,83
2022-09-28T17:03:00.634Z,83
2022-09-28T17:04:11.887Z,82
2022-09-28T17:05:18.412Z,82
2022-09-28T17:06:23.259Z,82
2022-09-28T17:07:27.612Z,82
2022-09-28T17:08:32.176Z,82
2022-09-28T17:09:36.556Z,82
2022-09-28T17:10:55.997Z,82
2022-09-28T17:11:54.144Z,82
2022-09-28T17:12:58.648Z,82
2022-09-28T17:14:02.891Z,82
2022-09-28T17:15:07.164Z,82
2022-09-28T17:16:11.732Z,82
2022-09-28T17:17:22.478Z,82
2022-09-28T17:18:26.670Z,82
2022-09-28T17:19:30.916Z,82
2022-09-28T17:20:35.143Z,82
2022-09-28T17:21:40.152Z,82
2022-09-28T17:22:44.544Z,82
2022-09-28T17:23:51.592Z,82
2022-09-28T17:24:56.310Z,82
2022-09-28T17:26:00.823Z,82
2022-09-28T17:27:05.143Z,82
2022-09-28T17:28:09.508Z,82
2022-09-28T17:30:25.126Z,82
2022-09-28T17:31:27.398Z,82
2022-09-28T17:32:32.071Z,82
2022-09-28T17:33:36.446Z,82
2022-09-28T17:34:40.983Z,82
2022-09-28T17:35:45.198Z,82
2022-09-28T17:36:52.455Z,82
2022-09-28T17:37:56.979Z,82
2022-09-28T17:39:03.893Z,82
2022-09-28T17:40:05.805Z,82
2022-09-28T17:41:20.919Z,82
2022-09-28T17:42:24.571Z,82
2022-09-28T17:43:29.140Z,82
2022-09-28T17:44:33.500Z,82
2022-09-28T17:45:38.480Z,82
2022-09-28T17:46:42.746Z,82
2022-09-28T17:47:47.284Z,82
2022-09-28T17:48:52.140Z,82
2022-09-28T17:49:57.171Z,82
2022-09-28T17:51:01.537Z,82
2022-09-28T17:52:06.723Z,82
2022-09-28T17:53:11.023Z,82
2022-09-28T17:54:16.048Z,82
2022-09-28T17:55:25.195Z,82
2022-09-28T17:56:34.063Z,82
2022-09-28T17:57:39.163Z,82
2022-09-28T17:58:43.805Z,82
2022-09-28T17:59:48.196Z,82
2022-09-28T18:00:52.416Z,82
2022-09-28T18:01:59.341Z,82
2022-09-28T18:04:04.649Z,82
2022-09-28T18:05:08.988Z,82
2022-09-28T18:07:20.556Z,82
2022-09-28T18:08:24.899Z,82
2022-09-28T18:09:29.456Z,82
2022-09-28T18:10:33.915Z,82
2022-09-28T18:11:38.225Z,82
2022-09-28T18:12:45.528Z,82
2022-09-28T18:13:50.071Z,82
2022-09-28T18:14:54.351Z,82
2022-09-28T18:17:02.415Z,82
2022-09-28T18:18:12.215Z,82
2022-09-28T18:19:16.712Z,82
2022-09-28T18:20:21.051Z,82
2022-09-28T18:21:25.324Z,82
2022-09-28T18:22:29.843Z,82
2022-09-28T18:23:34.180Z,82
2022-09-28T18:24:38.462Z,82
2022-09-28T18:25:45.364Z,82
2022-09-28T18:26:49.862Z,82
2022-09-28T18:27:56.496Z,82
2022-09-28T18:29:04.240Z,82
2022-09-28T18:30:08.909Z,82
2022-09-28T18:31:16.255Z,82
2022-09-28T18:32:20.944Z,82
2022-09-28T18:33:25.454Z,82
2022-09-28T18:34:29.954Z,82
2022-09-28T18:35:37.841Z,82
2022-09-28T18:36:47.788Z,82
2022-09-28T18:37:53.028Z,82
2022-09-28T18:38:57.741Z,82
2022-09-28T18:40:01.917Z,82
2022-09-28T18:41:06.720Z,82
2022-09-28T18:42:13.900Z,82
2022-09-28T18:43:18.402Z,82
2022-09-28T18:44:22.970Z,82
2022-09-28T18:45:27.657Z,82
2022-09-28T18:46:32.184Z,82
2022-09-28T18:47:40.700Z,82
2022-09-28T18:48:45.529Z,82
2022-09-28T18:49:50.139Z,82
2022-09-28T18:50:54.352Z,82
2022-09-28T18:51:58.940Z,82
2022-09-28T18:53:03.550Z,82
2022-09-28T18:54:13.168Z,82
2022-09-28T18:55:17.992Z,82
2022-09-28T18:56:22.499Z,82
2022-09-28T18:57:27.001Z,82
2022-09-28T18:58:33.884Z,82
2022-09-28T18:59:38.164Z,82
2022-09-28T19:00:45.032Z,82
2022-09-28T19:01:49.527Z,82
2022-09-28T19:02:54.338Z,82
2022-09-28T19:03:58.613Z,82
2022-09-28T19:05:08.121Z,82
2022-09-28T19:06:17.160Z,82
2022-09-28T19:07:22.037Z,82
2022-09-28T19:08:27.709Z,82
2022-09-28T19:09:31.364Z,82
2022-09-28T19:10:36.400Z,82
2022-09-28T19:11:42.330Z,82
2022-09-28T19:12:47.644Z,82
2022-09-28T19:13:51.844Z,82
2022-09-28T19:15:00.251Z,82
2022-09-28T19:16:05.889Z,82
2022-09-28T19:17:10.220Z,83
2022-09-28T19:20:05.448Z,83
2022-09-28T19:21:10.060Z,83
2022-09-28T19:23:17.604Z,84
2022-09-28T19:24:21.777Z,83
2022-09-28T19:25:26.588Z,84
2022-09-28T19:26:31.139Z,83
2022-09-28T19:27:41.045Z,83
2022-09-28T19:28:45.453Z,84
2022-09-28T19:29:50.360Z,84
2022-09-28T19:30:55.071Z,84
2022-09-28T19:31:59.528Z,83
2022-09-28T19:33:04.179Z,84
2022-09-28T19:34:10.442Z,85
2022-09-28T19:35:12.796Z,84
2022-09-28T19:36:17.153Z,84
2022-09-28T19:37:21.378Z,84
2022-09-28T19:38:26.101Z,83
2022-09-28T19:39:35.896Z,83
2022-09-28T19:40:40.358Z,83
2022-09-28T19:41:45.010Z,83
2022-09-28T19:42:49.408Z,83
2022-09-28T19:43:53.648Z,83
2022-09-28T19:44:58.147Z,83
2022-09-28T19:46:02.722Z,83
2022-09-28T19:47:07.408Z,83
2022-09-28T19:48:16.117Z,84
2022-09-28T19:49:20.620Z,84
2022-09-28T19:50:25.212Z,84
2022-09-28T19:51:29.553Z,83
2022-09-28T19:52:37.780Z,83
2022-09-28T19:53:42.468Z,83
2022-09-28T19:54:47.432Z,84
2022-09-28T19:55:57.156Z,84
2022-09-28T19:57:09.255Z,84
2022-09-28T19:58:13.952Z,83
2022-09-28T19:59:23.045Z,83
2022-09-28T20:00:28.337Z,83
2022-09-28T20:01:32.913Z,83
2022-09-28T20:02:37.455Z,83
2022-09-28T20:03:41.684Z,83
2022-09-28T20:04:48.408Z,83
2022-09-28T20:05:52.968Z,83
2022-09-28T20:06:57.272Z,82
2022-09-28T20:09:06.836Z,82
2022-09-28T20:10:11.340Z,82
2022-09-28T20:11:15.987Z,82
2022-09-28T20:12:21.928Z,82
2022-09-28T20:13:28.901Z,82
2022-09-28T20:14:37.881Z,82
2022-09-28T20:15:37.452Z,82
2022-09-28T20:16:41.759Z,82
2022-09-28T20:17:47.351Z,83
2022-09-28T20:18:51.804Z,82
2022-09-28T20:20:00.169Z,82
2022-09-28T20:21:04.792Z,82
2022-09-28T20:22:11.469Z,82
2022-09-28T20:23:15.692Z,82
2022-09-28T20:24:22.168Z,83
2022-09-28T20:25:26.609Z,82
2022-09-28T20:26:30.803Z,82
2022-09-28T20:27:38.460Z,82
2022-09-28T20:28:42.712Z,82
2022-09-28T20:29:47.176Z,81
2022-09-28T20:30:51.612Z,81
2022-09-28T20:31:55.979Z,82
2022-09-28T20:33:00.243Z,81
2022-09-28T20:34:06.388Z,81
2022-09-28T20:35:11.276Z,81
2022-09-28T20:36:17.364Z,81
2022-09-28T20:37:22.213Z,81
2022-09-28T20:38:27.164Z,81
2022-09-28T20:39:31.516Z,81
2022-09-28T20:40:40.731Z,81
2022-09-28T20:41:45.102Z,82
2022-09-28T20:42:49.704Z,81
2022-09-28T20:43:54.256Z,81
2022-09-28T20:45:03.203Z,81
2022-09-28T20:46:07.691Z,81
2022-09-28T20:49:02.352Z,81
2022-09-28T20:50:06.635Z,81
2022-09-28T20:51:14.048Z,82
2022-09-28T20:54:08.521Z,82
2022-09-28T20:55:13.063Z,81
2022-09-28T20:56:17.311Z,81
2022-09-28T20:57:22.581Z,81
2022-09-28T20:58:33.464Z,81
2022-09-28T20:59:39.687Z,82
2022-09-28T21:00:52.676Z,81
2022-09-28T21:02:07.964Z,82
2022-09-28T21:03:12.778Z,82
2022-09-28T21:04:18.200Z,81
2022-09-28T21:05:22.556Z,81
2022-09-28T21:06:26.957Z,81
2022-09-28T21:07:35.012Z,81
2022-09-28T21:08:39.347Z,81
2022-09-28T21:09:44.144Z,81
2022-09-28T21:10:48.235Z,81
2022-09-28T21:11:52.512Z,81
2022-09-28T21:12:56.848Z,82
2022-09-28T21:14:01.142Z,81
2022-09-28T21:15:08.977Z,81
2022-09-28T21:16:18.573Z,81
2022-09-28T21:17:22.783Z,81
2022-09-28T21:18:29.648Z,81
2022-09-28T21:19:38.038Z,81
2022-09-28T21:20:43.668Z,81
2022-09-28T21:22:51.627Z,81
2022-09-28T21:23:58.081Z,81
2022-09-28T21:25:02.671Z,81
2022-09-28T21:26:07.235Z,81
2022-09-28T21:27:11.561Z,81
2022-09-28T21:28:15.825Z,81
2022-09-28T21:29:20.335Z,81
2022-09-28T21:30:25.715Z,81
2022-09-28T21:31:30.191Z,81
2022-09-28T21:32:37.475Z,81
2022-09-28T21:33:41.819Z,81
2022-09-28T21:34:46.188Z,81
2022-09-28T21:35:52.139Z,81
2022-09-28T21:36:56.531Z,81
2022-09-28T21:38:00.832Z,81
2022-09-28T21:39:10.188Z,81
2022-09-28T21:40:11.727Z,81
2022-09-28T21:41:16.175Z,81
2022-09-28T21:42:20.492Z,81
2022-09-28T21:43:24.764Z,81
2022-09-28T21:44:29.152Z,81
2022-09-28T21:45:34.264Z,81
2022-09-28T21:46:39.383Z,81
2022-09-28T21:47:44.056Z,81
2022-09-28T21:48:48.260Z,81
2022-09-28T21:49:55.644Z,81
2022-09-28T21:51:00.125Z,81
2022-09-28T21:52:04.692Z,81
2022-09-28T21:53:09.065Z,81
2022-09-28T21:54:13.503Z,81
2022-09-28T21:55:18.964Z,81
2022-09-28T21:56:23.555Z,81
2022-09-28T21:57:28.316Z,81
2022-09-28T21:58:34.535Z,81
2022-09-28T21:59:38.839Z,81
2022-09-28T22:00:43.002Z,81
2022-09-28T22:01:47.417Z,81
2022-09-28T22:02:51.570Z,81
2022-09-28T22:03:57.056Z,81
2022-09-28T22:05:01.451Z,81
2022-09-28T22:06:06.363Z,81
2022-09-28T22:07:11.193Z,81
2022-09-28T22:08:15.623Z,81
2022-09-28T22:09:20.072Z,81
2022-09-28T22:10:24.805Z,81
2022-09-28T22:11:32.968Z,81
2022-09-28T22:12:37.186Z,81
2022-09-28T22:13:41.855Z,81
2022-09-28T22:14:46.181Z,81
2022-09-28T22:15:50.605Z,81
2022-09-28T22:16:55.148Z,81
2022-09-28T22:17:59.739Z,81
2022-09-28T22:19:04.156Z,81
2022-09-28T22:20:10.177Z,81
2022-09-28T22:21:14.671Z,81
2022-09-28T22:22:29.027Z,81
2022-09-28T22:23:30.271Z,81
2022-09-28T22:24:35.507Z,81
2022-09-28T22:25:39.905Z,81
2022-09-28T22:26:44.099Z,81
2022-09-28T22:27:48.228Z,81
2022-09-28T22:28:52.503Z,80
2022-09-28T22:31:07.843Z,80
2022-09-28T22:32:12.551Z,80
2022-09-28T22:33:18.179Z,81
2022-09-28T22:34:22.531Z,81
2022-09-28T22:35:28.824Z,81
2022-09-28T22:36:33.015Z,81
2022-09-28T22:37:37.263Z,81
2022-09-28T22:38:41.663Z,81
2022-09-28T22:39:45.932Z,81
2022-09-28T22:40:50.179Z,81
2022-09-28T22:41:59.031Z,81
2022-09-28T22:43:03.407Z,80
2022-09-28T22:44:07.944Z,80
2022-09-28T22:45:12.203Z,80
2022-09-28T22:46:16.620Z,81
2022-09-28T22:47:20.700Z,81
2022-09-28T22:48:25.092Z,81
2022-09-28T22:49:29.791Z,81
2022-09-28T22:50:36.079Z,81
2022-09-28T22:51:41.188Z,81
2022-09-28T22:52:45.664Z,81
2022-09-28T22:53:50.143Z,80
2022-09-28T22:54:54.352Z,80
2022-09-28T22:55:59.496Z,80
2022-09-28T22:57:06.054Z,80
2022-09-28T22:58:10.267Z,81
2022-09-28T22:59:14.682Z,81
2022-09-28T23:00:18.973Z,81
2022-09-28T23:01:23.914Z,81
2022-09-28T23:02:31.983Z,81
2022-09-28T23:03:36.439Z,81
2022-09-28T23:04:43.628Z,81
2022-09-28T23:05:48.125Z,81
2022-09-28T23:06:56.703Z,81
2022-09-28T23:08:00.983Z,81
2022-09-28T23:09:05.405Z,81
2022-09-28T23:10:09.875Z,81
2022-09-28T23:11:14.212Z,81
2022-09-28T23:12:18.375Z,81
2022-09-28T23:13:25.215Z,81
2022-09-28T23:14:29.501Z,81
2022-09-28T23:15:34.991Z,81
2022-09-28T23:16:42.079Z,81
2022-09-28T23:17:46.411Z,81
2022-09-28T23:18:58.621Z,81
2022-09-28T23:20:03.037Z,81
2022-09-28T23:21:07.319Z,81
2022-09-28T23:22:11.940Z,81
2022-09-28T23:23:16.323Z,81
2022-09-28T23:24:21.027Z,81
2022-09-28T23:27:16.267Z,81
2022-09-28T23:28:20.491Z,81
2022-09-28T23:29:25.068Z,81
2022-09-28T23:30:29.477Z,81
2022-09-28T23:31:33.886Z,81
2022-09-28T23:32:38.015Z,81
2022-09-28T23:33:42.183Z,81
2022-09-28T23:34:46.438Z,81
2022-09-28T23:35:55.079Z,81
2022-09-28T23:37:01.951Z,81
2022-09-28T23:38:06.174Z,81
2022-09-28T23:39:17.067Z,81
2022-09-28T23:40:21.520Z,81
2022-09-28T23:41:25.830Z,81
2022-09-28T23:42:30.074Z,81
2022-09-28T23:43:34.795Z,81
2022-09-28T23:44:39.183Z,81
2022-09-28T23:45:43.623Z,81
2022-09-28T23:46:47.974Z,81
2022-09-28T23:47:52.867Z,81
2022-09-28T23:48:57.257Z,81
2022-09-28T23:50:05.332Z,81
2022-09-28T23:51:09.795Z,81
2022-09-28T23:52:14.616Z,81
2022-09-28T23:53:18.873Z,81
2022-09-28T23:54:27.233Z,81
2022-09-28T23:55:31.435Z,81
2022-09-28T23:56:35.734Z,81
2022-09-28T23:57:40.151Z,81
2022-09-28T23:58:44.555Z,81
2022-09-28T23:59:49.767Z,81
